sensor_id;sensor_type;location;lat;lon;timestamp;temperature;humidity
83327;DHT22;73250;55.594;13.020;2023-12-20T00:01:22;22.20;40.00
83327;DHT22;73250;55.594;13.020;2023-12-20T00:03:49;22.20;40.00
83327;DHT22;73250;55.594;13.020;2023-12-20T00:06:16;22.20;40.00
83327;DHT22;73250;55.594;13.020;2023-12-20T00:08:42;22.20;40.00
83327;DHT22;73250;55.594;13.020;2023-12-20T00:11:10;22.20;40.00
83327;DHT22;73250;55.594;13.020;2023-12-20T00:13:36;22.20;40.00
83327;DHT22;73250;55.594;13.020;2023-12-20T00:16:05;22.20;40.00
83327;DHT22;73250;55.594;13.020;2023-12-20T00:18:31;22.20;40.00
83327;DHT22;73250;55.594;13.020;2023-12-20T00:20:58;22.20;40.00
83327;DHT22;73250;55.594;13.020;2023-12-20T00:23:25;22.20;40.00
83327;DHT22;73250;55.594;13.020;2023-12-20T00:25:51;22.20;40.00
83327;DHT22;73250;55.594;13.020;2023-12-20T00:28:18;22.20;40.00
83327;DHT22;73250;55.594;13.020;2023-12-20T00:30:44;22.20;40.00
83327;DHT22;73250;55.594;13.020;2023-12-20T00:33:12;22.20;40.00
83327;DHT22;73250;55.594;13.020;2023-12-20T00:35:39;22.20;39.90
83327;DHT22;73250;55.594;13.020;2023-12-20T00:38:06;22.10;39.90
83327;DHT22;73250;55.594;13.020;2023-12-20T00:40:34;22.20;40.00
83327;DHT22;73250;55.594;13.020;2023-12-20T00:43:00;22.20;39.90
83327;DHT22;73250;55.594;13.020;2023-12-20T00:45:27;22.20;40.00
83327;DHT22;73250;55.594;13.020;2023-12-20T00:47:54;22.10;39.90
83327;DHT22;73250;55.594;13.020;2023-12-20T00:50:22;22.20;39.90
83327;DHT22;73250;55.594;13.020;2023-12-20T00:52:48;22.10;39.80
83327;DHT22;73250;55.594;13.020;2023-12-20T00:55:15;22.20;39.90
83327;DHT22;73250;55.594;13.020;2023-12-20T00:57:42;22.20;39.90
83327;DHT22;73250;55.594;13.020;2023-12-20T01:00:09;22.10;39.80
83327;DHT22;73250;55.594;13.020;2023-12-20T01:02:36;22.20;39.90
83327;DHT22;73250;55.594;13.020;2023-12-20T01:05:03;22.20;39.90
83327;DHT22;73250;55.594;13.020;2023-12-20T01:07:31;22.20;39.90
83327;DHT22;73250;55.594;13.020;2023-12-20T01:09:58;22.10;39.80
83327;DHT22;73250;55.594;13.020;2023-12-20T01:12:24;22.10;39.90
83327;DHT22;73250;55.594;13.020;2023-12-20T01:14:51;22.10;39.80
83327;DHT22;73250;55.594;13.020;2023-12-20T01:17:18;22.10;39.90
83327;DHT22;73250;55.594;13.020;2023-12-20T01:19:44;22.10;39.90
83327;DHT22;73250;55.594;13.020;2023-12-20T01:22:11;22.10;39.80
83327;DHT22;73250;55.594;13.020;2023-12-20T01:24:39;22.10;39.80
83327;DHT22;73250;55.594;13.020;2023-12-20T01:27:05;22.10;39.90
83327;DHT22;73250;55.594;13.020;2023-12-20T01:29:32;22.10;39.80
83327;DHT22;73250;55.594;13.020;2023-12-20T01:31:59;22.10;39.80
83327;DHT22;73250;55.594;13.020;2023-12-20T01:34:25;22.10;39.80
83327;DHT22;73250;55.594;13.020;2023-12-20T01:36:52;22.10;39.80
83327;DHT22;73250;55.594;13.020;2023-12-20T01:39:18;22.10;40.50
83327;DHT22;73250;55.594;13.020;2023-12-20T01:41:46;22.10;39.80
83327;DHT22;73250;55.594;13.020;2023-12-20T01:44:13;22.10;39.80
83327;DHT22;73250;55.594;13.020;2023-12-20T01:46:40;22.10;39.80
83327;DHT22;73250;55.594;13.020;2023-12-20T01:49:07;22.10;39.80
83327;DHT22;73250;55.594;13.020;2023-12-20T01:51:35;22.10;39.80
83327;DHT22;73250;55.594;13.020;2023-12-20T01:54:02;22.10;39.80
83327;DHT22;73250;55.594;13.020;2023-12-20T01:56:29;22.10;39.80
83327;DHT22;73250;55.594;13.020;2023-12-20T01:58:58;22.10;39.80
83327;DHT22;73250;55.594;13.020;2023-12-20T02:01:25;22.10;39.80
83327;DHT22;73250;55.594;13.020;2023-12-20T02:03:54;22.10;39.80
83327;DHT22;73250;55.594;13.020;2023-12-20T02:06:22;22.10;39.80
83327;DHT22;73250;55.594;13.020;2023-12-20T02:08:50;22.10;40.40
83327;DHT22;73250;55.594;13.020;2023-12-20T02:11:16;22.10;39.80
83327;DHT22;73250;55.594;13.020;2023-12-20T02:13:43;22.10;39.80
83327;DHT22;73250;55.594;13.020;2023-12-20T02:16:11;22.10;39.80
83327;DHT22;73250;55.594;13.020;2023-12-20T02:18:38;22.10;39.80
83327;DHT22;73250;55.594;13.020;2023-12-20T02:21:05;22.10;39.80
83327;DHT22;73250;55.594;13.020;2023-12-20T02:23:33;22.10;39.80
83327;DHT22;73250;55.594;13.020;2023-12-20T02:26:00;22.10;39.80
83327;DHT22;73250;55.594;13.020;2023-12-20T02:28:26;22.10;39.80
83327;DHT22;73250;55.594;13.020;2023-12-20T02:30:54;22.10;39.80
83327;DHT22;73250;55.594;13.020;2023-12-20T02:33:20;22.00;39.70
83327;DHT22;73250;55.594;13.020;2023-12-20T02:35:47;22.10;39.80
83327;DHT22;73250;55.594;13.020;2023-12-20T02:38:13;22.10;39.80
83327;DHT22;73250;55.594;13.020;2023-12-20T02:40:41;22.10;39.80
83327;DHT22;73250;55.594;13.020;2023-12-20T02:43:08;22.10;39.80
83327;DHT22;73250;55.594;13.020;2023-12-20T02:45:35;22.10;39.80
83327;DHT22;73250;55.594;13.020;2023-12-20T02:48:01;22.10;39.80
83327;DHT22;73250;55.594;13.020;2023-12-20T02:50:28;22.10;40.00
83327;DHT22;73250;55.594;13.020;2023-12-20T02:52:55;22.10;39.80
83327;DHT22;73250;55.594;13.020;2023-12-20T02:55:21;22.00;40.40
83327;DHT22;73250;55.594;13.020;2023-12-20T02:57:49;22.10;39.80
83327;DHT22;73250;55.594;13.020;2023-12-20T03:00:16;22.10;39.80
83327;DHT22;73250;55.594;13.020;2023-12-20T03:02:43;22.00;39.70
83327;DHT22;73250;55.594;13.020;2023-12-20T03:05:10;22.00;39.80
83327;DHT22;73250;55.594;13.020;2023-12-20T03:07:36;22.00;39.80
83327;DHT22;73250;55.594;13.020;2023-12-20T03:10:05;22.00;39.70
83327;DHT22;73250;55.594;13.020;2023-12-20T03:12:33;22.00;39.80
83327;DHT22;73250;55.594;13.020;2023-12-20T03:15:00;22.00;39.70
83327;DHT22;73250;55.594;13.020;2023-12-20T03:17:27;22.00;39.70
83327;DHT22;73250;55.594;13.020;2023-12-20T03:19:54;22.00;39.80
83327;DHT22;73250;55.594;13.020;2023-12-20T03:22:21;22.00;39.70
83327;DHT22;73250;55.594;13.020;2023-12-20T03:24:47;22.00;39.80
83327;DHT22;73250;55.594;13.020;2023-12-20T03:27:14;22.00;39.80
83327;DHT22;73250;55.594;13.020;2023-12-20T03:29:41;22.00;39.70
83327;DHT22;73250;55.594;13.020;2023-12-20T03:32:09;22.00;39.70
83327;DHT22;73250;55.594;13.020;2023-12-20T03:34:35;22.00;39.80
83327;DHT22;73250;55.594;13.020;2023-12-20T03:37:02;22.00;39.80
83327;DHT22;73250;55.594;13.020;2023-12-20T03:39:29;22.00;39.80
83327;DHT22;73250;55.594;13.020;2023-12-20T03:41:55;22.00;39.80
83327;DHT22;73250;55.594;13.020;2023-12-20T03:44:22;22.00;39.70
83327;DHT22;73250;55.594;13.020;2023-12-20T03:46:49;22.00;39.80
83327;DHT22;73250;55.594;13.020;2023-12-20T03:49:17;22.00;39.80
83327;DHT22;73250;55.594;13.020;2023-12-20T03:51:43;22.00;39.70
83327;DHT22;73250;55.594;13.020;2023-12-20T03:54:10;22.00;39.80
83327;DHT22;73250;55.594;13.020;2023-12-20T03:56:36;22.00;39.80
83327;DHT22;73250;55.594;13.020;2023-12-20T03:59:03;22.00;39.80
83327;DHT22;73250;55.594;13.020;2023-12-20T04:01:30;22.00;39.70
83327;DHT22;73250;55.594;13.020;2023-12-20T04:03:56;22.00;39.80
83327;DHT22;73250;55.594;13.020;2023-12-20T04:06:24;22.00;39.80
83327;DHT22;73250;55.594;13.020;2023-12-20T04:08:51;22.00;39.80
83327;DHT22;73250;55.594;13.020;2023-12-20T04:11:17;22.00;39.80
83327;DHT22;73250;55.594;13.020;2023-12-20T04:13:44;22.00;39.80
83327;DHT22;73250;55.594;13.020;2023-12-20T04:16:11;22.00;39.80
83327;DHT22;73250;55.594;13.020;2023-12-20T04:18:37;22.00;39.80
83327;DHT22;73250;55.594;13.020;2023-12-20T04:21:04;22.00;39.80
83327;DHT22;73250;55.594;13.020;2023-12-20T04:23:32;22.00;39.80
83327;DHT22;73250;55.594;13.020;2023-12-20T04:25:59;22.00;39.80
83327;DHT22;73250;55.594;13.020;2023-12-20T04:28:25;22.00;39.80
83327;DHT22;73250;55.594;13.020;2023-12-20T04:30:52;22.00;39.80
83327;DHT22;73250;55.594;13.020;2023-12-20T04:33:18;22.00;39.80
83327;DHT22;73250;55.594;13.020;2023-12-20T04:35:45;22.00;39.80
83327;DHT22;73250;55.594;13.020;2023-12-20T04:38:12;22.00;39.80
83327;DHT22;73250;55.594;13.020;2023-12-20T04:40:40;21.90;39.80
83327;DHT22;73250;55.594;13.020;2023-12-20T04:43:06;22.00;39.80
83327;DHT22;73250;55.594;13.020;2023-12-20T04:45:34;22.00;39.90
83327;DHT22;73250;55.594;13.020;2023-12-20T04:48:01;22.00;39.80
83327;DHT22;73250;55.594;13.020;2023-12-20T04:50:28;22.00;39.80
83327;DHT22;73250;55.594;13.020;2023-12-20T04:52:54;22.00;39.90
83327;DHT22;73250;55.594;13.020;2023-12-20T04:55:21;22.00;39.90
83327;DHT22;73250;55.594;13.020;2023-12-20T04:57:49;21.90;39.80
83327;DHT22;73250;55.594;13.020;2023-12-20T05:00:16;22.00;39.80
83327;DHT22;73250;55.594;13.020;2023-12-20T05:02:43;22.00;39.90
83327;DHT22;73250;55.594;13.020;2023-12-20T05:05:09;22.00;39.90
83327;DHT22;73250;55.594;13.020;2023-12-20T05:07:36;22.00;39.80
83327;DHT22;73250;55.594;13.020;2023-12-20T05:10:03;22.00;39.80
83327;DHT22;73250;55.594;13.020;2023-12-20T05:12:30;22.00;39.90
83327;DHT22;73250;55.594;13.020;2023-12-20T05:14:58;21.90;39.90
83327;DHT22;73250;55.594;13.020;2023-12-20T05:17:25;22.00;39.80
83327;DHT22;73250;55.594;13.020;2023-12-20T05:19:52;21.90;39.80
83327;DHT22;73250;55.594;13.020;2023-12-20T05:22:19;21.90;39.80
83327;DHT22;73250;55.594;13.020;2023-12-20T05:24:46;21.90;39.80
83327;DHT22;73250;55.594;13.020;2023-12-20T05:27:12;21.90;39.80
83327;DHT22;73250;55.594;13.020;2023-12-20T05:29:39;21.90;39.80
83327;DHT22;73250;55.594;13.020;2023-12-20T05:32:07;21.90;39.90
83327;DHT22;73250;55.594;13.020;2023-12-20T05:34:34;21.90;39.80
83327;DHT22;73250;55.594;13.020;2023-12-20T05:37:01;21.90;39.80
83327;DHT22;73250;55.594;13.020;2023-12-20T05:39:28;21.90;39.80
83327;DHT22;73250;55.594;13.020;2023-12-20T05:41:56;21.90;39.80
83327;DHT22;73250;55.594;13.020;2023-12-20T05:44:23;21.90;39.80
83327;DHT22;73250;55.594;13.020;2023-12-20T05:46:49;21.90;39.80
83327;DHT22;73250;55.594;13.020;2023-12-20T05:49:17;21.90;39.80
83327;DHT22;73250;55.594;13.020;2023-12-20T05:51:44;21.90;39.80
83327;DHT22;73250;55.594;13.020;2023-12-20T05:54:11;21.90;39.80
83327;DHT22;73250;55.594;13.020;2023-12-20T05:56:37;21.90;39.80
83327;DHT22;73250;55.594;13.020;2023-12-20T05:59:04;21.90;39.80
83327;DHT22;73250;55.594;13.020;2023-12-20T06:01:31;21.90;39.80
83327;DHT22;73250;55.594;13.020;2023-12-20T06:03:57;21.90;39.80
83327;DHT22;73250;55.594;13.020;2023-12-20T06:06:25;21.90;39.80
83327;DHT22;73250;55.594;13.020;2023-12-20T06:08:52;21.90;39.80
83327;DHT22;73250;55.594;13.020;2023-12-20T06:11:18;21.90;39.80
83327;DHT22;73250;55.594;13.020;2023-12-20T06:13:45;21.90;39.80
83327;DHT22;73250;55.594;13.020;2023-12-20T06:16:12;21.90;39.80
83327;DHT22;73250;55.594;13.020;2023-12-20T06:18:38;21.90;39.80
83327;DHT22;73250;55.594;13.020;2023-12-20T06:21:05;21.90;39.80
83327;DHT22;73250;55.594;13.020;2023-12-20T06:23:34;21.90;39.80
83327;DHT22;73250;55.594;13.020;2023-12-20T06:26:01;21.90;39.70
83327;DHT22;73250;55.594;13.020;2023-12-20T06:28:27;21.90;39.80
83327;DHT22;73250;55.594;13.020;2023-12-20T06:30:54;21.90;39.80
83327;DHT22;73250;55.594;13.020;2023-12-20T06:33:22;21.90;39.70
83327;DHT22;73250;55.594;13.020;2023-12-20T06:35:49;21.90;39.70
83327;DHT22;73250;55.594;13.020;2023-12-20T06:38:18;21.90;39.70
83327;DHT22;73250;55.594;13.020;2023-12-20T06:40:47;21.90;39.80
83327;DHT22;73250;55.594;13.020;2023-12-20T06:43:14;21.90;39.70
83327;DHT22;73250;55.594;13.020;2023-12-20T06:45:40;21.90;39.70
83327;DHT22;73250;55.594;13.020;2023-12-20T06:48:07;21.90;39.70
83327;DHT22;73250;55.594;13.020;2023-12-20T06:50:35;21.90;39.70
83327;DHT22;73250;55.594;13.020;2023-12-20T06:53:05;21.90;39.70
83327;DHT22;73250;55.594;13.020;2023-12-20T06:55:32;21.90;39.70
83327;DHT22;73250;55.594;13.020;2023-12-20T06:58:00;21.90;39.70
83327;DHT22;73250;55.594;13.020;2023-12-20T07:00:26;21.90;39.70
83327;DHT22;73250;55.594;13.020;2023-12-20T07:02:53;21.90;39.70
83327;DHT22;73250;55.594;13.020;2023-12-20T07:05:20;21.90;39.70
83327;DHT22;73250;55.594;13.020;2023-12-20T07:07:47;21.90;39.70
83327;DHT22;73250;55.594;13.020;2023-12-20T07:10:13;21.90;39.70
83327;DHT22;73250;55.594;13.020;2023-12-20T07:12:40;21.90;39.70
83327;DHT22;73250;55.594;13.020;2023-12-20T07:15:09;21.90;39.60
83327;DHT22;73250;55.594;13.020;2023-12-20T07:17:35;21.90;39.60
83327;DHT22;73250;55.594;13.020;2023-12-20T07:20:06;21.90;39.60
83327;DHT22;73250;55.594;13.020;2023-12-20T07:22:36;21.80;39.50
83327;DHT22;73250;55.594;13.020;2023-12-20T07:25:03;21.80;39.50
83327;DHT22;73250;55.594;13.020;2023-12-20T07:27:30;21.90;39.60
83327;DHT22;73250;55.594;13.020;2023-12-20T07:29:56;21.80;39.50
83327;DHT22;73250;55.594;13.020;2023-12-20T07:32:24;21.80;39.60
83327;DHT22;73250;55.594;13.020;2023-12-20T07:34:51;21.80;39.50
83327;DHT22;73250;55.594;13.020;2023-12-20T07:37:19;21.80;39.60
83327;DHT22;73250;55.594;13.020;2023-12-20T07:39:46;21.80;39.60
83327;DHT22;73250;55.594;13.020;2023-12-20T07:42:13;21.80;39.70
83327;DHT22;73250;55.594;13.020;2023-12-20T07:44:39;21.80;39.70
83327;DHT22;73250;55.594;13.020;2023-12-20T07:47:06;21.80;39.60
83327;DHT22;73250;55.594;13.020;2023-12-20T07:49:34;21.80;39.70
83327;DHT22;73250;55.594;13.020;2023-12-20T07:52:01;21.80;39.80
83327;DHT22;73250;55.594;13.020;2023-12-20T07:54:28;21.80;39.80
83327;DHT22;73250;55.594;13.020;2023-12-20T07:56:55;21.80;39.80
83327;DHT22;73250;55.594;13.020;2023-12-20T07:59:21;21.80;39.80
83327;DHT22;73250;55.594;13.020;2023-12-20T08:01:48;21.80;40.00
83327;DHT22;73250;55.594;13.020;2023-12-20T08:04:15;21.80;40.00
83327;DHT22;73250;55.594;13.020;2023-12-20T08:06:43;21.80;40.10
83327;DHT22;73250;55.594;13.020;2023-12-20T08:09:09;21.80;40.10
83327;DHT22;73250;55.594;13.020;2023-12-20T08:11:36;21.90;40.10
83327;DHT22;73250;55.594;13.020;2023-12-20T08:14:03;21.90;40.00
83327;DHT22;73250;55.594;13.020;2023-12-20T08:16:29;21.90;39.90
83327;DHT22;73250;55.594;13.020;2023-12-20T08:18:56;21.90;39.90
83327;DHT22;73250;55.594;13.020;2023-12-20T08:21:22;21.90;40.00
83327;DHT22;73250;55.594;13.020;2023-12-20T08:23:50;21.90;39.90
83327;DHT22;73250;55.594;13.020;2023-12-20T08:26:19;21.90;40.00
83327;DHT22;73250;55.594;13.020;2023-12-20T08:28:47;22.00;40.00
83327;DHT22;73250;55.594;13.020;2023-12-20T08:31:14;22.00;39.90
83327;DHT22;73250;55.594;13.020;2023-12-20T08:33:43;22.00;39.90
83327;DHT22;73250;55.594;13.020;2023-12-20T08:36:09;22.00;40.00
83327;DHT22;73250;55.594;13.020;2023-12-20T08:38:36;22.00;40.00
83327;DHT22;73250;55.594;13.020;2023-12-20T08:41:04;22.00;40.10
83327;DHT22;73250;55.594;13.020;2023-12-20T08:43:31;22.00;40.00
83327;DHT22;73250;55.594;13.020;2023-12-20T08:45:58;22.00;40.00
83327;DHT22;73250;55.594;13.020;2023-12-20T08:48:24;22.00;39.90
83327;DHT22;73250;55.594;13.020;2023-12-20T08:50:51;22.00;39.80
83327;DHT22;73250;55.594;13.020;2023-12-20T08:53:18;22.00;39.70
83327;DHT22;73250;55.594;13.020;2023-12-20T08:55:44;22.00;39.70
83327;DHT22;73250;55.594;13.020;2023-12-20T08:58:13;22.10;39.80
83327;DHT22;73250;55.594;13.020;2023-12-20T09:00:40;22.10;39.60
83327;DHT22;73250;55.594;13.020;2023-12-20T09:03:06;22.00;39.50
83327;DHT22;73250;55.594;13.020;2023-12-20T09:05:33;22.10;39.60
83327;DHT22;73250;55.594;13.020;2023-12-20T09:08:00;22.10;39.70
83327;DHT22;73250;55.594;13.020;2023-12-20T09:10:26;22.10;39.80
83327;DHT22;73250;55.594;13.020;2023-12-20T09:12:54;22.10;39.60
83327;DHT22;73250;55.594;13.020;2023-12-20T09:15:23;22.10;39.60
83327;DHT22;73250;55.594;13.020;2023-12-20T09:17:50;22.10;39.50
83327;DHT22;73250;55.594;13.020;2023-12-20T09:20:17;22.10;39.50
83327;DHT22;73250;55.594;13.020;2023-12-20T09:22:43;22.10;39.50
83327;DHT22;73250;55.594;13.020;2023-12-20T09:25:10;22.10;39.60
83327;DHT22;73250;55.594;13.020;2023-12-20T09:27:38;22.10;39.60
83327;DHT22;73250;55.594;13.020;2023-12-20T09:30:05;22.10;39.60
83327;DHT22;73250;55.594;13.020;2023-12-20T09:32:33;22.10;39.50
83327;DHT22;73250;55.594;13.020;2023-12-20T09:35:03;22.10;39.60
83327;DHT22;73250;55.594;13.020;2023-12-20T09:37:31;22.10;39.60
83327;DHT22;73250;55.594;13.020;2023-12-20T09:39:58;22.20;39.60
83327;DHT22;73250;55.594;13.020;2023-12-20T09:42:29;22.20;39.60
83327;DHT22;73250;55.594;13.020;2023-12-20T09:45:00;22.20;39.70
83327;DHT22;73250;55.594;13.020;2023-12-20T09:47:28;22.20;39.70
83327;DHT22;73250;55.594;13.020;2023-12-20T09:49:57;22.20;39.90
83327;DHT22;73250;55.594;13.020;2023-12-20T09:52:24;22.20;39.90
83327;DHT22;73250;55.594;13.020;2023-12-20T09:54:52;22.20;39.60
83327;DHT22;73250;55.594;13.020;2023-12-20T09:57:20;22.20;39.70
83327;DHT22;73250;55.594;13.020;2023-12-20T09:59:47;22.20;39.80
83327;DHT22;73250;55.594;13.020;2023-12-20T10:02:14;22.20;39.70
83327;DHT22;73250;55.594;13.020;2023-12-20T10:04:46;22.20;39.50
83327;DHT22;73250;55.594;13.020;2023-12-20T10:07:15;22.20;39.60
83327;DHT22;73250;55.594;13.020;2023-12-20T10:09:42;22.30;39.90
83327;DHT22;73250;55.594;13.020;2023-12-20T10:12:09;22.30;39.80
83327;DHT22;73250;55.594;13.020;2023-12-20T10:14:36;22.30;39.90
83327;DHT22;73250;55.594;13.020;2023-12-20T10:17:03;22.30;40.20
83327;DHT22;73250;55.594;13.020;2023-12-20T10:19:30;22.30;40.20
83327;DHT22;73250;55.594;13.020;2023-12-20T10:21:57;22.30;40.20
83327;DHT22;73250;55.594;13.020;2023-12-20T10:24:28;22.30;40.30
83327;DHT22;73250;55.594;13.020;2023-12-20T10:27:02;22.30;40.20
83327;DHT22;73250;55.594;13.020;2023-12-20T10:29:32;22.40;40.40
83327;DHT22;73250;55.594;13.020;2023-12-20T10:31:59;22.40;40.30
83327;DHT22;73250;55.594;13.020;2023-12-20T10:34:25;22.30;40.40
83327;DHT22;73250;55.594;13.020;2023-12-20T10:36:52;22.40;40.40
83327;DHT22;73250;55.594;13.020;2023-12-20T10:39:20;22.30;40.40
83327;DHT22;73250;55.594;13.020;2023-12-20T10:41:49;22.40;40.30
83327;DHT22;73250;55.594;13.020;2023-12-20T10:44:15;22.40;40.50
83327;DHT22;73250;55.594;13.020;2023-12-20T10:46:43;22.40;40.40
83327;DHT22;73250;55.594;13.020;2023-12-20T10:49:17;22.40;40.30
83327;DHT22;73250;55.594;13.020;2023-12-20T10:51:46;22.40;40.30
83327;DHT22;73250;55.594;13.020;2023-12-20T10:54:14;22.40;40.30
83327;DHT22;73250;55.594;13.020;2023-12-20T10:56:41;22.40;40.20
83327;DHT22;73250;55.594;13.020;2023-12-20T10:59:11;22.40;40.10
83327;DHT22;73250;55.594;13.020;2023-12-20T11:01:39;22.40;40.10
83327;DHT22;73250;55.594;13.020;2023-12-20T11:04:09;22.40;40.10
83327;DHT22;73250;55.594;13.020;2023-12-20T11:06:43;22.40;40.10
83327;DHT22;73250;55.594;13.020;2023-12-20T11:09:16;22.40;40.10
83327;DHT22;73250;55.594;13.020;2023-12-20T11:11:56;22.40;40.20
83327;DHT22;73250;55.594;13.020;2023-12-20T11:14:32;22.40;40.10
83327;DHT22;73250;55.594;13.020;2023-12-20T11:17:08;22.40;40.20
83327;DHT22;73250;55.594;13.020;2023-12-20T11:19:37;22.40;40.10
83327;DHT22;73250;55.594;13.020;2023-12-20T11:22:04;22.40;40.60
83327;DHT22;73250;55.594;13.020;2023-12-20T11:24:32;22.40;40.00
83327;DHT22;73250;55.594;13.020;2023-12-20T11:27:00;22.40;39.80
83327;DHT22;73250;55.594;13.020;2023-12-20T11:29:33;22.40;39.80
83327;DHT22;73250;55.594;13.020;2023-12-20T11:32:01;22.40;39.80
83327;DHT22;73250;55.594;13.020;2023-12-20T11:34:29;22.40;40.10
83327;DHT22;73250;55.594;13.020;2023-12-20T11:36:58;22.40;40.00
83327;DHT22;73250;55.594;13.020;2023-12-20T11:39:26;22.40;40.00
83327;DHT22;73250;55.594;13.020;2023-12-20T11:41:54;22.40;40.30
83327;DHT22;73250;55.594;13.020;2023-12-20T11:44:21;22.40;40.40
83327;DHT22;73250;55.594;13.020;2023-12-20T11:46:49;22.40;40.30
83327;DHT22;73250;55.594;13.020;2023-12-20T11:49:16;22.40;40.50
83327;DHT22;73250;55.594;13.020;2023-12-20T11:51:44;22.40;40.40
83327;DHT22;73250;55.594;13.020;2023-12-20T11:54:10;22.40;40.30
83327;DHT22;73250;55.594;13.020;2023-12-20T11:56:37;22.40;40.70
83327;DHT22;73250;55.594;13.020;2023-12-20T11:59:04;22.40;40.30
83327;DHT22;73250;55.594;13.020;2023-12-20T12:01:31;22.40;40.20
83327;DHT22;73250;55.594;13.020;2023-12-20T12:04:06;22.50;40.10
83327;DHT22;73250;55.594;13.020;2023-12-20T12:06:33;22.50;39.90
83327;DHT22;73250;55.594;13.020;2023-12-20T12:08:59;22.50;40.30
83327;DHT22;73250;55.594;13.020;2023-12-20T12:11:26;22.50;40.30
83327;DHT22;73250;55.594;13.020;2023-12-20T12:13:53;22.50;40.50
83327;DHT22;73250;55.594;13.020;2023-12-20T12:16:20;22.50;40.60
83327;DHT22;73250;55.594;13.020;2023-12-20T12:18:54;22.50;40.40
83327;DHT22;73250;55.594;13.020;2023-12-20T12:21:22;22.50;40.60
83327;DHT22;73250;55.594;13.020;2023-12-20T12:23:49;22.50;40.70
83327;DHT22;73250;55.594;13.020;2023-12-20T12:26:16;22.50;40.70
83327;DHT22;73250;55.594;13.020;2023-12-20T12:28:43;22.50;40.80
83327;DHT22;73250;55.594;13.020;2023-12-20T12:31:13;22.60;40.90
83327;DHT22;73250;55.594;13.020;2023-12-20T12:33:40;22.60;40.90
83327;DHT22;73250;55.594;13.020;2023-12-20T12:36:07;22.60;40.80
83327;DHT22;73250;55.594;13.020;2023-12-20T12:38:35;22.60;40.90
83327;DHT22;73250;55.594;13.020;2023-12-20T12:41:02;22.60;40.90
83327;DHT22;73250;55.594;13.020;2023-12-20T12:43:29;22.60;40.70
83327;DHT22;73250;55.594;13.020;2023-12-20T12:45:55;22.60;40.60
83327;DHT22;73250;55.594;13.020;2023-12-20T12:48:22;22.70;40.70
83327;DHT22;73250;55.594;13.020;2023-12-20T12:50:50;22.70;40.80
83327;DHT22;73250;55.594;13.020;2023-12-20T12:53:18;22.70;40.80
83327;DHT22;73250;55.594;13.020;2023-12-20T12:55:46;22.70;40.80
83327;DHT22;73250;55.594;13.020;2023-12-20T12:58:13;22.70;40.90
83327;DHT22;73250;55.594;13.020;2023-12-20T13:00:40;22.70;40.90
83327;DHT22;73250;55.594;13.020;2023-12-20T13:03:07;22.70;41.00
83327;DHT22;73250;55.594;13.020;2023-12-20T13:05:34;22.70;41.10
83327;DHT22;73250;55.594;13.020;2023-12-20T13:08:01;22.70;41.10
83327;DHT22;73250;55.594;13.020;2023-12-20T13:10:27;22.70;41.50
83327;DHT22;73250;55.594;13.020;2023-12-20T13:12:55;22.80;41.20
83327;DHT22;73250;55.594;13.020;2023-12-20T13:15:22;22.80;41.30
83327;DHT22;73250;55.594;13.020;2023-12-20T13:17:48;22.80;41.10
83327;DHT22;73250;55.594;13.020;2023-12-20T13:20:16;22.80;41.10
83327;DHT22;73250;55.594;13.020;2023-12-20T13:22:42;22.80;41.20
83327;DHT22;73250;55.594;13.020;2023-12-20T13:25:09;22.80;41.40
83327;DHT22;73250;55.594;13.020;2023-12-20T13:27:36;22.80;41.40
83327;DHT22;73250;55.594;13.020;2023-12-20T13:30:05;22.80;41.40
83327;DHT22;73250;55.594;13.020;2023-12-20T13:32:32;22.80;41.20
83327;DHT22;73250;55.594;13.020;2023-12-20T13:34:59;22.80;41.10
83327;DHT22;73250;55.594;13.020;2023-12-20T13:37:26;22.80;41.10
83327;DHT22;73250;55.594;13.020;2023-12-20T13:39:52;22.90;41.10
83327;DHT22;73250;55.594;13.020;2023-12-20T13:42:19;22.90;41.20
83327;DHT22;73250;55.594;13.020;2023-12-20T13:44:46;22.90;41.10
83327;DHT22;73250;55.594;13.020;2023-12-20T13:47:14;22.90;41.30
83327;DHT22;73250;55.594;13.020;2023-12-20T13:49:41;22.90;41.20
83327;DHT22;73250;55.594;13.020;2023-12-20T13:52:07;22.90;41.00
83327;DHT22;73250;55.594;13.020;2023-12-20T13:54:34;22.90;40.80
83327;DHT22;73250;55.594;13.020;2023-12-20T13:57:01;22.90;40.60
83327;DHT22;73250;55.594;13.020;2023-12-20T13:59:28;22.90;40.70
83327;DHT22;73250;55.594;13.020;2023-12-20T14:01:55;22.90;40.60
83327;DHT22;73250;55.594;13.020;2023-12-20T14:04:23;22.90;40.50
83327;DHT22;73250;55.594;13.020;2023-12-20T14:06:50;22.90;40.30
83327;DHT22;73250;55.594;13.020;2023-12-20T14:09:17;23.00;40.50
83327;DHT22;73250;55.594;13.020;2023-12-20T14:11:43;23.00;40.30
83327;DHT22;73250;55.594;13.020;2023-12-20T14:14:11;23.00;40.40
83327;DHT22;73250;55.594;13.020;2023-12-20T14:16:38;23.00;40.40
83327;DHT22;73250;55.594;13.020;2023-12-20T14:19:04;23.00;40.50
83327;DHT22;73250;55.594;13.020;2023-12-20T14:21:34;23.00;40.40
83327;DHT22;73250;55.594;13.020;2023-12-20T14:24:00;23.00;40.30
83327;DHT22;73250;55.594;13.020;2023-12-20T14:26:27;23.00;40.30
83327;DHT22;73250;55.594;13.020;2023-12-20T14:28:54;22.90;40.30
83327;DHT22;73250;55.594;13.020;2023-12-20T14:31:20;23.00;40.30
83327;DHT22;73250;55.594;13.020;2023-12-20T14:33:49;23.00;40.80
83327;DHT22;73250;55.594;13.020;2023-12-20T14:36:18;23.00;40.10
83327;DHT22;73250;55.594;13.020;2023-12-20T14:38:47;23.00;40.30
83327;DHT22;73250;55.594;13.020;2023-12-20T14:41:15;23.00;40.20
83327;DHT22;73250;55.594;13.020;2023-12-20T14:43:42;22.90;40.00
83327;DHT22;73250;55.594;13.020;2023-12-20T14:46:09;22.90;39.90
83327;DHT22;73250;55.594;13.020;2023-12-20T14:48:36;22.90;39.80
83327;DHT22;73250;55.594;13.020;2023-12-20T14:51:03;22.90;39.90
83327;DHT22;73250;55.594;13.020;2023-12-20T14:53:29;22.90;39.90
83327;DHT22;73250;55.594;13.020;2023-12-20T14:55:57;22.90;40.10
83327;DHT22;73250;55.594;13.020;2023-12-20T14:58:25;22.90;39.90
83327;DHT22;73250;55.594;13.020;2023-12-20T15:00:52;22.90;40.00
83327;DHT22;73250;55.594;13.020;2023-12-20T15:03:18;22.90;40.00
83327;DHT22;73250;55.594;13.020;2023-12-20T15:05:45;23.00;40.20
83327;DHT22;73250;55.594;13.020;2023-12-20T15:08:13;23.00;40.30
83327;DHT22;73250;55.594;13.020;2023-12-20T15:10:40;23.00;40.20
83327;DHT22;73250;55.594;13.020;2023-12-20T15:13:08;23.00;40.10
83327;DHT22;73250;55.594;13.020;2023-12-20T15:15:34;23.00;40.20